TimeCEST,TemperatureF,Dew PointF,Humidity,Sea Level PressureIn,VisibilityMPH,Wind Direction,Wind SpeedMPH,Gust SpeedMPH,PrecipitationIn,Events,Conditions,WindDirDegrees,DateUTC
12:00 AM,53.6,53.6,100,30.01,6.2,West,3.5,-,N/A,,Scattered Clouds,270,2012-10-21 22:00:00
1:00 AM,53.6,53.6,100,30.01,6.2,Calm,Calm,-,N/A,,Mostly Cloudy,0,2012-10-21 23:00:00
1:30 AM,53.6,53.6,100,30.01,6.2,Calm,Calm,-,N/A,,Mostly Cloudy,0,2012-10-21 23:30:00
2:00 AM,53.6,53.6,100,30.01,6.2,Calm,Calm,-,N/A,,Mostly Cloudy,0,2012-10-22 00:00:00
2:30 AM,53.6,53.6,100,30.01,6.2,Calm,Calm,-,N/A,,Mostly Cloudy,0,2012-10-22 00:30:00
3:00 AM,53.6,53.6,100,30.01,6.2,NNE,1.2,-,N/A,,Mostly Cloudy,20,2012-10-22 01:00:00
3:30 AM,53.6,53.6,100,30.01,6.2,Calm,Calm,-,N/A,,Mostly Cloudy,0,2012-10-22 01:30:00
4:00 AM,51.8,51.8,100,30.01,6.2,Calm,Calm,-,N/A,,Scattered Clouds,0,2012-10-22 02:00:00
4:30 AM,51.8,51.8,100,30.01,6.2,East,1.2,-,N/A,,Scattered Clouds,80,2012-10-22 02:30:00
5:00 AM,51.8,51.8,100,30.01,6.2,South,1.2,-,N/A,,Scattered Clouds,190,2012-10-22 03:00:00
5:30 AM,53.6,53.6,100,30.01,6.2,SW,2.3,-,N/A,,Scattered Clouds,220,2012-10-22 03:30:00
6:30 AM,53.6,51.8,94,30.04,6.2,Calm,Calm,-,N/A,,Scattered Clouds,0,2012-10-22 04:30:00
7:00 AM,53.6,51.8,94,30.04,6.2,Variable,1.2,-,N/A,,Scattered Clouds,0,2012-10-22 05:00:00
7:30 AM,53.6,51.8,94,30.04,6.2,Calm,Calm,-,N/A,,Scattered Clouds,0,2012-10-22 05:30:00
8:30 AM,53.6,51.8,94,30.04,6.2,Variable,1.2,-,N/A,Rain,Light Rain,0,2012-10-22 06:30:00
9:00 AM,53.6,53.6,100,30.06,6.2,Calm,Calm,-,N/A,,Mostly Cloudy,0,2012-10-22 07:00:00
11:00 AM,55.4,50.0,82,30.09,6.2,SSW,3.5,-,N/A,,Mostly Cloudy,210,2012-10-22 09:00:00
12:00 PM,57.2,48.2,72,30.09,6.2,SW,8.1,-,N/A,,Scattered Clouds,220,2012-10-22 10:00:00
12:30 PM,60.8,48.2,63,30.09,-9999.0,SSW,8.1,-,N/A,,Clear,210,2012-10-22 10:30:00
2:30 PM,66.2,48.2,52,30.06,6.2,Calm,Calm,-,N/A,,Partly Cloudy,0,2012-10-22 12:30:00
4:30 PM,68.0,48.2,49,30.06,6.2,Calm,Calm,-,N/A,,Partly Cloudy,0,2012-10-22 14:30:00
5:00 PM,68.0,48.2,49,30.06,6.2,Calm,Calm,-,N/A,,Partly Cloudy,0,2012-10-22 15:00:00
5:30 PM,69.8,48.2,46,30.06,6.2,Calm,Calm,-,N/A,,Partly Cloudy,0,2012-10-22 15:30:00
6:00 PM,68.0,48.2,49,30.06,6.2,Calm,Calm,-,N/A,,Partly Cloudy,0,2012-10-22 16:00:00
6:30 PM,66.2,50.0,56,30.06,6.2,Calm,Calm,-,N/A,,Partly Cloudy,0,2012-10-22 16:30:00
7:00 PM,64.4,53.6,68,30.06,6.2,Calm,Calm,-,N/A,,Partly Cloudy,0,2012-10-22 17:00:00
7:30 PM,59.0,53.6,82,30.09,-9999.0,Calm,Calm,-,N/A,,Clear,0,2012-10-22 17:30:00
8:00 PM,57.2,53.6,88,30.09,-9999.0,Calm,Calm,-,N/A,,Clear,0,2012-10-22 18:00:00
8:30 PM,55.4,53.6,94,30.09,-9999.0,Calm,Calm,-,N/A,,Clear,0,2012-10-22 18:30:00
9:00 PM,53.6,53.6,100,30.09,-9999.0,NE,3.5,-,N/A,,Clear,40,2012-10-22 19:00:00
9:30 PM,53.6,51.8,94,30.12,-9999.0,Calm,Calm,-,N/A,,Clear,0,2012-10-22 19:30:00
10:00 PM,51.8,51.8,100,30.12,-9999.0,Calm,Calm,-,N/A,,Clear,0,2012-10-22 20:00:00
10:30 PM,50.0,48.2,94,30.12,-9999.0,Calm,Calm,-,N/A,,Clear,0,2012-10-22 20:30:00
11:00 PM,50.0,50.0,100,30.12,-9999.0,Calm,Calm,-,N/A,,Clear,0,2012-10-22 21:00:00
11:30 PM,50.0,50.0,100,30.15,-9999.0,Calm,Calm,-,N/A,,Clear,0,2012-10-22 21:30:00